sensor_id;sensor_type;location;lat;lon;timestamp;pressure;altitude;pressure_sealevel;temperature;humidity
13124;BME280;6627;50.920;12.050;2022-08-11T00:01:19;99537.59;;;19.85;53.31
13124;BME280;6627;50.920;12.050;2022-08-11T00:03:58;99526.31;;;19.54;54.30
13124;BME280;6627;50.920;12.050;2022-08-11T00:06:31;99568.06;;;19.80;53.52
13124;BME280;6627;50.920;12.050;2022-08-11T00:09:04;99530.41;;;19.35;54.22
13124;BME280;6627;50.920;12.050;2022-08-11T00:11:35;99577.03;;;19.44;54.52
13124;BME280;6627;50.920;12.050;2022-08-11T00:14:18;99581.06;;;19.59;53.88
13124;BME280;6627;50.920;12.050;2022-08-11T00:16:56;99621.25;;;19.97;53.22
13124;BME280;6627;50.920;12.050;2022-08-11T00:19:29;99540.91;;;19.33;53.86
13124;BME280;6627;50.920;12.050;2022-08-11T00:21:59;99593.06;;;19.54;54.02
13124;BME280;6627;50.920;12.050;2022-08-11T00:24:32;99697.91;;;20.56;52.36
13124;BME280;6627;50.920;12.050;2022-08-11T00:27:03;99639.84;;;20.61;51.24
13124;BME280;6627;50.920;12.050;2022-08-11T00:29:33;99551.81;;;19.87;52.29
13124;BME280;6627;50.920;12.050;2022-08-11T00:32:04;99651.88;;;20.44;51.86
13124;BME280;6627;50.920;12.050;2022-08-11T00:34:37;99680.63;;;21.08;50.57
13124;BME280;6627;50.920;12.050;2022-08-11T00:37:17;99670.69;;;21.44;49.32
13124;BME280;6627;50.920;12.050;2022-08-11T00:39:52;99562.00;;;20.88;49.99
13124;BME280;6627;50.920;12.050;2022-08-11T00:42:40;99536.91;;;20.37;51.00
13124;BME280;6627;50.920;12.050;2022-08-11T00:45:21;99548.03;;;20.29;51.38
13124;BME280;6627;50.920;12.050;2022-08-11T00:48:07;99581.91;;;20.70;50.83
13124;BME280;6627;50.920;12.050;2022-08-11T00:50:51;99506.34;;;19.90;51.82
13124;BME280;6627;50.920;12.050;2022-08-11T00:53:39;99529.94;;;19.91;52.16
13124;BME280;6627;50.920;12.050;2022-08-11T00:57:09;99497.25;;;19.53;52.83
13124;BME280;6627;50.920;12.050;2022-08-11T01:00:14;99536.44;;;19.74;52.43
13124;BME280;6627;50.920;12.050;2022-08-11T01:03:09;99573.13;;;19.90;52.23
13124;BME280;6627;50.920;12.050;2022-08-11T01:06:13;99579.06;;;20.05;51.93
13124;BME280;6627;50.920;12.050;2022-08-11T01:09:33;99685.25;;;20.91;50.78
13124;BME280;6627;50.920;12.050;2022-08-11T01:12:31;99608.66;;;20.69;50.48
13124;BME280;6627;50.920;12.050;2022-08-11T01:19:26;99514.53;;;19.08;54.38
13124;BME280;6627;50.920;12.050;2022-08-11T01:22:29;99565.50;;;19.30;54.24
13124;BME280;6627;50.920;12.050;2022-08-11T01:25:47;99573.84;;;19.21;54.63
13124;BME280;6627;50.920;12.050;2022-08-11T01:29:05;99631.31;;;19.80;53.38
13124;BME280;6627;50.920;12.050;2022-08-11T01:35:33;99638.81;;;20.53;51.35
13124;BME280;6627;50.920;12.050;2022-08-11T01:42:21;99533.03;;;18.99;54.48
13124;BME280;6627;50.920;12.050;2022-08-11T01:45:40;99563.38;;;18.81;55.30
13124;BME280;6627;50.920;12.050;2022-08-11T01:48:40;99603.16;;;19.17;54.78
13124;BME280;6627;50.920;12.050;2022-08-11T01:51:47;99593.38;;;18.86;55.33
13124;BME280;6627;50.920;12.050;2022-08-11T01:54:31;99608.72;;;18.87;55.47
13124;BME280;6627;50.920;12.050;2022-08-11T01:57:19;99551.56;;;18.39;55.93
13124;BME280;6627;50.920;12.050;2022-08-11T01:59:51;99575.91;;;18.40;56.37
13124;BME280;6627;50.920;12.050;2022-08-11T02:02:36;99596.06;;;18.45;56.22
13124;BME280;6627;50.920;12.050;2022-08-11T02:05:35;99631.94;;;18.60;56.09
13124;BME280;6627;50.920;12.050;2022-08-11T02:08:22;99615.84;;;18.29;56.76
13124;BME280;6627;50.920;12.050;2022-08-11T02:11:04;99604.56;;;18.22;56.70
13124;BME280;6627;50.920;12.050;2022-08-11T02:14:01;99683.69;;;18.79;56.05
13124;BME280;6627;50.920;12.050;2022-08-11T02:16:47;99725.03;;;19.25;54.85
13124;BME280;6627;50.920;12.050;2022-08-11T02:19:25;99606.75;;;18.37;55.99
13124;BME280;6627;50.920;12.050;2022-08-11T02:22:29;99577.00;;;17.89;57.08
13124;BME280;6627;50.920;12.050;2022-08-11T02:25:36;99605.97;;;17.99;57.60
13124;BME280;6627;50.920;12.050;2022-08-11T02:28:09;99603.41;;;17.94;57.53
13124;BME280;6627;50.920;12.050;2022-08-11T02:30:49;99630.16;;;17.97;57.92
13124;BME280;6627;50.920;12.050;2022-08-11T02:33:42;99608.16;;;17.76;58.08
13124;BME280;6627;50.920;12.050;2022-08-11T02:36:16;99612.00;;;17.66;58.54
13124;BME280;6627;50.920;12.050;2022-08-11T02:38:52;99674.81;;;17.97;58.60
13124;BME280;6627;50.920;12.050;2022-08-11T02:41:41;99699.75;;;18.13;58.17
13124;BME280;6627;50.920;12.050;2022-08-11T02:44:40;99726.13;;;18.44;57.55
13124;BME280;6627;50.920;12.050;2022-08-11T02:47:27;99677.88;;;17.96;58.57
13124;BME280;6627;50.920;12.050;2022-08-11T02:50:11;99696.88;;;18.09;58.56
13124;BME280;6627;50.920;12.050;2022-08-11T02:52:47;99666.31;;;17.81;58.85
13124;BME280;6627;50.920;12.050;2022-08-11T02:55:26;99710.56;;;18.09;58.83
13124;BME280;6627;50.920;12.050;2022-08-11T02:58:09;99732.75;;;18.43;57.67
13124;BME280;6627;50.920;12.050;2022-08-11T03:00:48;99753.75;;;18.68;57.38
13124;BME280;6627;50.920;12.050;2022-08-11T03:03:24;99746.19;;;18.74;56.94
13124;BME280;6627;50.920;12.050;2022-08-11T03:06:07;99748.84;;;18.91;56.10
13124;BME280;6627;50.920;12.050;2022-08-11T03:08:48;99753.97;;;19.01;55.98
13124;BME280;6627;50.920;12.050;2022-08-11T03:11:38;99756.75;;;19.22;55.19
13124;BME280;6627;50.920;12.050;2022-08-11T03:14:33;99768.69;;;19.68;53.85
13124;BME280;6627;50.920;12.050;2022-08-11T03:17:33;99755.16;;;19.84;53.26
13124;BME280;6627;50.920;12.050;2022-08-11T03:20:16;99725.50;;;19.89;52.81
13124;BME280;6627;50.920;12.050;2022-08-11T03:22:57;99674.31;;;19.64;52.90
13124;BME280;6627;50.920;12.050;2022-08-11T03:25:35;99705.25;;;19.73;53.24
13124;BME280;6627;50.920;12.050;2022-08-11T03:28:25;99626.78;;;19.30;53.27
13124;BME280;6627;50.920;12.050;2022-08-11T03:31:07;99628.25;;;19.28;52.89
13124;BME280;6627;50.920;12.050;2022-08-11T03:33:43;99571.44;;;18.86;53.01
13124;BME280;6627;50.920;12.050;2022-08-11T03:37:04;99659.09;;;19.46;52.63
13124;BME280;6627;50.920;12.050;2022-08-11T03:39:47;99632.28;;;19.30;52.65
13124;BME280;6627;50.920;12.050;2022-08-11T03:42:26;99607.28;;;19.02;53.62
13124;BME280;6627;50.920;12.050;2022-08-11T03:45:22;99575.78;;;18.58;54.25
13124;BME280;6627;50.920;12.050;2022-08-11T03:48:07;99660.53;;;19.10;53.96
13124;BME280;6627;50.920;12.050;2022-08-11T03:50:54;99716.75;;;19.75;52.71
13124;BME280;6627;50.920;12.050;2022-08-11T03:53:54;99688.56;;;19.78;52.49
13124;BME280;6627;50.920;12.050;2022-08-11T04:00:12;99547.09;;;18.55;54.13
13124;BME280;6627;50.920;12.050;2022-08-11T04:03:09;99630.38;;;18.80;55.20
13124;BME280;6627;50.920;12.050;2022-08-11T04:10:27;99587.91;;;17.98;56.70
13124;BME280;6627;50.920;12.050;2022-08-11T04:13:53;99593.47;;;17.80;57.63
13124;BME280;6627;50.920;12.050;2022-08-11T04:17:17;99689.31;;;18.45;56.97
13124;BME280;6627;50.920;12.050;2022-08-11T04:20:18;99725.41;;;18.94;55.39
13124;BME280;6627;50.920;12.050;2022-08-11T04:23:09;99664.09;;;18.60;55.64
13124;BME280;6627;50.920;12.050;2022-08-11T04:26:10;99673.69;;;18.36;56.69
13124;BME280;6627;50.920;12.050;2022-08-11T04:29:05;99733.81;;;19.18;55.10
13124;BME280;6627;50.920;12.050;2022-08-11T04:31:38;99658.28;;;18.53;55.71
13124;BME280;6627;50.920;12.050;2022-08-11T04:35:07;99760.59;;;19.21;55.07
13124;BME280;6627;50.920;12.050;2022-08-11T04:38:14;99738.91;;;19.28;54.55
13124;BME280;6627;50.920;12.050;2022-08-11T04:41:19;99686.50;;;18.92;54.84
13124;BME280;6627;50.920;12.050;2022-08-11T04:44:26;99670.78;;;19.01;54.32
13124;BME280;6627;50.920;12.050;2022-08-11T04:47:18;99694.31;;;19.31;53.70
13124;BME280;6627;50.920;12.050;2022-08-11T04:50:28;99727.94;;;19.70;52.75
13124;BME280;6627;50.920;12.050;2022-08-11T04:53:33;99697.72;;;19.82;52.05
13124;BME280;6627;50.920;12.050;2022-08-11T04:56:28;99679.91;;;19.88;51.78
13124;BME280;6627;50.920;12.050;2022-08-11T04:59:37;99612.13;;;19.38;52.46
13124;BME280;6627;50.920;12.050;2022-08-11T05:03:06;99690.47;;;19.99;51.62
13124;BME280;6627;50.920;12.050;2022-08-11T05:06:21;99687.03;;;20.02;51.74
13124;BME280;6627;50.920;12.050;2022-08-11T05:10:01;99687.75;;;20.11;51.79
13124;BME280;6627;50.920;12.050;2022-08-11T05:12:41;99708.97;;;20.35;51.21
13124;BME280;6627;50.920;12.050;2022-08-11T05:15:15;99680.88;;;20.17;52.36
13124;BME280;6627;50.920;12.050;2022-08-11T05:18:11;99602.13;;;19.88;51.35
13124;BME280;6627;50.920;12.050;2022-08-11T05:21:05;99572.19;;;19.62;51.76
13124;BME280;6627;50.920;12.050;2022-08-11T05:23:57;99663.69;;;20.20;51.06
13124;BME280;6627;50.920;12.050;2022-08-11T05:26:49;99656.81;;;20.26;51.07
13124;BME280;6627;50.920;12.050;2022-08-11T05:29:42;99731.38;;;20.95;50.23
13124;BME280;6627;50.920;12.050;2022-08-11T05:32:38;99656.56;;;20.44;51.63
13124;BME280;6627;50.920;12.050;2022-08-11T05:35:29;99622.19;;;20.25;51.17
13124;BME280;6627;50.920;12.050;2022-08-11T05:38:00;99668.53;;;20.48;51.09
13124;BME280;6627;50.920;12.050;2022-08-11T05:40:48;99727.69;;;21.03;50.59
13124;BME280;6627;50.920;12.050;2022-08-11T05:43:40;99666.47;;;20.81;50.05
13124;BME280;6627;50.920;12.050;2022-08-11T05:46:28;99709.84;;;21.25;49.53
13124;BME280;6627;50.920;12.050;2022-08-11T05:49:14;99611.69;;;20.92;49.37
13124;BME280;6627;50.920;12.050;2022-08-11T05:52:02;99701.25;;;21.26;49.73
13124;BME280;6627;50.920;12.050;2022-08-11T05:54:50;99631.25;;;21.15;49.55
13124;BME280;6627;50.920;12.050;2022-08-11T05:57:37;99713.38;;;21.78;48.88
13124;BME280;6627;50.920;12.050;2022-08-11T06:00:08;99624.09;;;21.38;48.74
13124;BME280;6627;50.920;12.050;2022-08-11T06:02:41;99652.69;;;21.34;49.38
13124;BME280;6627;50.920;12.050;2022-08-11T06:05:10;99622.94;;;21.27;49.40
13124;BME280;6627;50.920;12.050;2022-08-11T06:07:39;99696.94;;;21.81;48.80
13124;BME280;6627;50.920;12.050;2022-08-11T06:10:09;99646.91;;;21.67;48.75
13124;BME280;6627;50.920;12.050;2022-08-11T06:12:39;99669.88;;;21.71;49.31
13124;BME280;6627;50.920;12.050;2022-08-11T06:15:10;99703.81;;;22.03;48.82
13124;BME280;6627;50.920;12.050;2022-08-11T06:17:45;99656.78;;;21.68;49.70
13124;BME280;6627;50.920;12.050;2022-08-11T06:20:15;99620.34;;;21.47;49.68
13124;BME280;6627;50.920;12.050;2022-08-11T06:22:47;99671.47;;;21.72;49.59
13124;BME280;6627;50.920;12.050;2022-08-11T06:25:29;99699.72;;;21.97;49.12
13124;BME280;6627;50.920;12.050;2022-08-11T06:27:57;99666.53;;;21.94;48.70
13124;BME280;6627;50.920;12.050;2022-08-11T06:30:37;99671.50;;;22.04;48.10
13124;BME280;6627;50.920;12.050;2022-08-11T06:33:10;99698.16;;;22.44;47.21
13124;BME280;6627;50.920;12.050;2022-08-11T06:35:50;99639.75;;;22.26;47.95
13124;BME280;6627;50.920;12.050;2022-08-11T06:38:38;99676.19;;;22.63;46.85
13124;BME280;6627;50.920;12.050;2022-08-11T06:41:19;99689.50;;;22.92;47.00
13124;BME280;6627;50.920;12.050;2022-08-11T06:44:21;99738.31;;;23.59;45.19
13124;BME280;6627;50.920;12.050;2022-08-11T06:46:51;99654.19;;;23.40;45.05
13124;BME280;6627;50.920;12.050;2022-08-11T06:49:32;99569.56;;;23.36;44.52
13124;BME280;6627;50.920;12.050;2022-08-11T06:52:18;99539.66;;;23.41;44.00
13124;BME280;6627;50.920;12.050;2022-08-11T06:54:55;99584.94;;;23.99;43.00
13124;BME280;6627;50.920;12.050;2022-08-11T06:57:33;99569.38;;;24.13;43.07
13124;BME280;6627;50.920;12.050;2022-08-11T07:00:19;99637.06;;;24.96;42.09
13124;BME280;6627;50.920;12.050;2022-08-11T07:03:05;99487.06;;;24.67;41.15
13124;BME280;6627;50.920;12.050;2022-08-11T07:05:44;99457.09;;;24.76;41.21
13124;BME280;6627;50.920;12.050;2022-08-11T07:08:44;99472.56;;;25.11;40.49
13124;BME280;6627;50.920;12.050;2022-08-11T07:15:32;99495.56;;;26.04;39.40
13124;BME280;6627;50.920;12.050;2022-08-11T07:18:20;99417.00;;;26.00;39.16
13124;BME280;6627;50.920;12.050;2022-08-11T07:21:23;99456.09;;;26.42;38.65
13124;BME280;6627;50.920;12.050;2022-08-11T07:24:15;99664.81;;;29.12;34.94
13124;BME280;6627;50.920;12.050;2022-08-11T07:27:08;99669.59;;;32.46;30.24
13124;BME280;6627;50.920;12.050;2022-08-11T07:29:56;99497.03;;;33.99;28.05
13124;BME280;6627;50.920;12.050;2022-08-11T07:32:30;99022.09;;;30.94;29.13
13124;BME280;6627;50.920;12.050;2022-08-11T07:35:08;99099.75;;;31.82;28.37
13124;BME280;6627;50.920;12.050;2022-08-11T07:37:41;99214.22;;;32.85;27.14
13124;BME280;6627;50.920;12.050;2022-08-11T07:40:11;98944.41;;;31.54;28.22
13124;BME280;6627;50.920;12.050;2022-08-11T07:42:39;98854.78;;;30.88;28.56
13124;BME280;6627;50.920;12.050;2022-08-11T07:45:12;99045.88;;;31.94;28.47
13124;BME280;6627;50.920;12.050;2022-08-11T07:48:05;99001.97;;;32.20;27.76
13124;BME280;6627;50.920;12.050;2022-08-11T07:50:51;98892.75;;;31.06;28.87
13124;BME280;6627;50.920;12.050;2022-08-11T07:53:38;98704.25;;;29.38;30.68
13124;BME280;6627;50.920;12.050;2022-08-11T07:56:06;98814.09;;;29.72;30.53
13124;BME280;6627;50.920;12.050;2022-08-11T07:58:35;98955.44;;;30.09;30.97
13124;BME280;6627;50.920;12.050;2022-08-11T08:01:24;98830.47;;;28.99;31.94
13124;BME280;6627;50.920;12.050;2022-08-11T08:04:14;98838.25;;;28.57;32.74
13124;BME280;6627;50.920;12.050;2022-08-11T08:07:01;99073.44;;;29.66;32.12
13124;BME280;6627;50.920;12.050;2022-08-11T08:09:48;99016.97;;;29.82;30.93
13124;BME280;6627;50.920;12.050;2022-08-11T08:12:34;99092.25;;;30.16;31.01
13124;BME280;6627;50.920;12.050;2022-08-11T08:15:21;99169.31;;;30.64;31.17
13124;BME280;6627;50.920;12.050;2022-08-11T08:18:07;99093.69;;;30.48;30.33
13124;BME280;6627;50.920;12.050;2022-08-11T08:20:44;99128.84;;;31.12;29.23
13124;BME280;6627;50.920;12.050;2022-08-11T08:23:12;99014.94;;;31.12;28.67
13124;BME280;6627;50.920;12.050;2022-08-11T08:25:43;98865.94;;;30.16;29.45
13124;BME280;6627;50.920;12.050;2022-08-11T08:28:15;98935.78;;;30.56;29.44
13124;BME280;6627;50.920;12.050;2022-08-11T08:30:44;98937.44;;;30.73;29.06
13124;BME280;6627;50.920;12.050;2022-08-11T08:33:21;98827.94;;;30.38;28.99
13124;BME280;6627;50.920;12.050;2022-08-11T08:35:52;98828.06;;;30.31;29.11
13124;BME280;6627;50.920;12.050;2022-08-11T08:38:38;98963.69;;;30.79;29.58
13124;BME280;6627;50.920;12.050;2022-08-11T08:41:07;98971.41;;;30.92;29.25
13124;BME280;6627;50.920;12.050;2022-08-11T08:43:36;98983.00;;;31.10;29.21
13124;BME280;6627;50.920;12.050;2022-08-11T08:46:09;98935.44;;;31.26;27.98
13124;BME280;6627;50.920;12.050;2022-08-11T08:48:38;98904.78;;;31.03;28.63
13124;BME280;6627;50.920;12.050;2022-08-11T08:51:11;98931.56;;;31.20;28.54
13124;BME280;6627;50.920;12.050;2022-08-11T08:54:03;98932.50;;;31.50;27.58
13124;BME280;6627;50.920;12.050;2022-08-11T08:56:33;99078.59;;;32.92;26.40
13124;BME280;6627;50.920;12.050;2022-08-11T08:59:03;98930.78;;;32.47;26.80
13124;BME280;6627;50.920;12.050;2022-08-11T09:01:40;98906.47;;;32.69;25.92
13124;BME280;6627;50.920;12.050;2022-08-11T09:04:08;98699.28;;;31.78;25.92
13124;BME280;6627;50.920;12.050;2022-08-11T09:06:39;98896.97;;;33.05;25.57
13124;BME280;6627;50.920;12.050;2022-08-11T09:09:09;98849.13;;;33.21;25.23
13124;BME280;6627;50.920;12.050;2022-08-11T09:11:39;98683.53;;;32.35;25.12
13124;BME280;6627;50.920;12.050;2022-08-11T09:14:21;98727.25;;;32.71;25.27
13124;BME280;6627;50.920;12.050;2022-08-11T09:16:50;98759.72;;;32.72;26.21
13124;BME280;6627;50.920;12.050;2022-08-11T09:19:20;98763.72;;;32.84;25.61
13124;BME280;6627;50.920;12.050;2022-08-11T09:21:50;98703.25;;;32.70;25.54
13124;BME280;6627;50.920;12.050;2022-08-11T09:24:39;98724.44;;;32.84;24.89
13124;BME280;6627;50.920;12.050;2022-08-11T09:27:26;98739.78;;;33.05;24.85
13124;BME280;6627;50.920;12.050;2022-08-11T09:29:54;98514.31;;;31.69;25.43
13124;BME280;6627;50.920;12.050;2022-08-11T09:32:22;98701.31;;;32.80;24.71
13124;BME280;6627;50.920;12.050;2022-08-11T09:34:51;98649.88;;;32.61;25.23
13124;BME280;6627;50.920;12.050;2022-08-11T09:37:22;98694.69;;;32.86;25.07
13124;BME280;6627;50.920;12.050;2022-08-11T09:40:10;98700.97;;;32.90;24.90
13124;BME280;6627;50.920;12.050;2022-08-11T09:43:02;98662.38;;;32.95;24.58
13124;BME280;6627;50.920;12.050;2022-08-11T09:45:50;98722.34;;;33.23;24.50
13124;BME280;6627;50.920;12.050;2022-08-11T09:48:18;98664.84;;;32.93;24.91
13124;BME280;6627;50.920;12.050;2022-08-11T09:50:49;98702.41;;;33.08;24.99
13124;BME280;6627;50.920;12.050;2022-08-11T09:53:21;98653.09;;;32.72;25.40
13124;BME280;6627;50.920;12.050;2022-08-11T09:55:50;98637.06;;;32.73;24.85
13124;BME280;6627;50.920;12.050;2022-08-11T09:58:19;98685.72;;;32.92;24.59
13124;BME280;6627;50.920;12.050;2022-08-11T10:00:50;98625.50;;;32.71;24.50
13124;BME280;6627;50.920;12.050;2022-08-11T10:03:24;98583.59;;;32.54;24.88
13124;BME280;6627;50.920;12.050;2022-08-11T10:05:55;98683.06;;;33.10;24.35
13124;BME280;6627;50.920;12.050;2022-08-11T10:08:45;98545.84;;;32.33;24.54
13124;BME280;6627;50.920;12.050;2022-08-11T10:11:17;98559.97;;;32.30;24.68
13124;BME280;6627;50.920;12.050;2022-08-11T10:13:51;98597.94;;;32.56;24.61
13124;BME280;6627;50.920;12.050;2022-08-11T10:16:40;98580.34;;;32.56;24.79
13124;BME280;6627;50.920;12.050;2022-08-11T10:19:09;98505.41;;;32.09;24.63
13124;BME280;6627;50.920;12.050;2022-08-11T10:21:41;98696.25;;;32.87;25.13
13124;BME280;6627;50.920;12.050;2022-08-11T10:24:32;98633.63;;;32.90;24.16
13124;BME280;6627;50.920;12.050;2022-08-11T10:27:18;98587.66;;;32.75;24.27
13124;BME280;6627;50.920;12.050;2022-08-11T10:29:46;98633.53;;;32.94;25.00
13124;BME280;6627;50.920;12.050;2022-08-11T10:32:32;98599.63;;;32.54;25.69
13124;BME280;6627;50.920;12.050;2022-08-11T10:35:20;98612.50;;;32.64;24.80
13124;BME280;6627;50.920;12.050;2022-08-11T10:37:53;98569.50;;;32.45;24.75
13124;BME280;6627;50.920;12.050;2022-08-11T10:40:23;98699.59;;;33.08;24.86
13124;BME280;6627;50.920;12.050;2022-08-11T10:42:55;98693.50;;;33.44;24.19
13124;BME280;6627;50.920;12.050;2022-08-11T10:45:33;98576.31;;;32.79;24.33
13124;BME280;6627;50.920;12.050;2022-08-11T10:48:21;98504.56;;;32.47;24.15
13124;BME280;6627;50.920;12.050;2022-08-11T10:50:50;98526.59;;;32.57;24.58
13124;BME280;6627;50.920;12.050;2022-08-11T10:53:38;98712.03;;;33.42;24.80
13124;BME280;6627;50.920;12.050;2022-08-11T10:56:28;98622.03;;;33.23;23.75
13124;BME280;6627;50.920;12.050;2022-08-11T10:59:14;98577.66;;;33.09;23.76
13124;BME280;6627;50.920;12.050;2022-08-11T11:01:44;98521.28;;;32.94;23.97
13124;BME280;6627;50.920;12.050;2022-08-11T11:04:15;98618.31;;;33.26;24.36
13124;BME280;6627;50.920;12.050;2022-08-11T11:06:51;98720.34;;;33.67;25.00
13124;BME280;6627;50.920;12.050;2022-08-11T11:09:28;98596.97;;;33.07;24.42
13124;BME280;6627;50.920;12.050;2022-08-11T11:12:06;98595.41;;;33.06;24.30
13124;BME280;6627;50.920;12.050;2022-08-11T11:14:54;98771.00;;;33.98;24.92
13124;BME280;6627;50.920;12.050;2022-08-11T11:17:46;98481.47;;;32.43;24.83
13124;BME280;6627;50.920;12.050;2022-08-11T11:20:34;98595.38;;;32.84;25.23
13124;BME280;6627;50.920;12.050;2022-08-11T11:23:12;98603.75;;;32.97;24.43
13124;BME280;6627;50.920;12.050;2022-08-11T11:29:30;98610.34;;;33.25;24.43
13124;BME280;6627;50.920;12.050;2022-08-11T11:32:23;98580.63;;;33.36;23.79
13124;BME280;6627;50.920;12.050;2022-08-11T11:35:23;98722.94;;;34.36;23.33
13124;BME280;6627;50.920;12.050;2022-08-11T11:37:55;98519.09;;;33.20;23.95
13124;BME280;6627;50.920;12.050;2022-08-11T11:40:24;98685.63;;;34.05;24.17
13124;BME280;6627;50.920;12.050;2022-08-11T11:42:55;98525.31;;;32.93;25.07
13124;BME280;6627;50.920;12.050;2022-08-11T11:45:25;98561.19;;;33.20;24.22
13124;BME280;6627;50.920;12.050;2022-08-11T11:47:55;98492.94;;;32.57;24.98
13124;BME280;6627;50.920;12.050;2022-08-11T11:50:28;98604.47;;;33.32;24.11
13124;BME280;6627;50.920;12.050;2022-08-11T11:52:57;98535.94;;;33.20;23.46
13124;BME280;6627;50.920;12.050;2022-08-11T11:55:28;98652.81;;;34.02;23.11
13124;BME280;6627;50.920;12.050;2022-08-11T11:57:57;98528.41;;;33.70;22.84
13124;BME280;6627;50.920;12.050;2022-08-11T12:00:46;98548.06;;;33.70;23.12
13124;BME280;6627;50.920;12.050;2022-08-11T12:03:32;98522.81;;;33.79;22.81
13124;BME280;6627;50.920;12.050;2022-08-11T12:06:01;98704.16;;;34.83;22.79
13124;BME280;6627;50.920;12.050;2022-08-11T12:08:30;98492.69;;;33.89;22.72
13124;BME280;6627;50.920;12.050;2022-08-11T12:11:01;98523.53;;;34.11;22.74
13124;BME280;6627;50.920;12.050;2022-08-11T12:13:50;98438.81;;;33.90;22.03
13124;BME280;6627;50.920;12.050;2022-08-11T12:16:21;98341.66;;;33.34;22.49
13124;BME280;6627;50.920;12.050;2022-08-11T12:18:52;98428.22;;;33.95;21.88
13124;BME280;6627;50.920;12.050;2022-08-11T12:21:20;98468.56;;;34.10;22.23
13124;BME280;6627;50.920;12.050;2022-08-11T12:23:49;98312.63;;;33.37;22.47
13124;BME280;6627;50.920;12.050;2022-08-11T12:26:37;98406.94;;;33.57;22.62
13124;BME280;6627;50.920;12.050;2022-08-11T12:29:22;98444.00;;;33.83;22.32
13124;BME280;6627;50.920;12.050;2022-08-11T12:31:54;98200.25;;;32.64;22.22
13124;BME280;6627;50.920;12.050;2022-08-11T12:34:26;98443.16;;;33.73;22.48
13124;BME280;6627;50.920;12.050;2022-08-11T12:36:58;98424.31;;;33.92;22.08
13124;BME280;6627;50.920;12.050;2022-08-11T12:39:36;98463.56;;;33.96;22.68
13124;BME280;6627;50.920;12.050;2022-08-11T12:42:22;98362.03;;;33.66;22.20
13124;BME280;6627;50.920;12.050;2022-08-11T12:45:12;98237.44;;;33.14;21.94
13124;BME280;6627;50.920;12.050;2022-08-11T12:48:06;98430.72;;;33.93;21.86
13124;BME280;6627;50.920;12.050;2022-08-11T12:50:57;98473.25;;;34.31;21.90
13124;BME280;6627;50.920;12.050;2022-08-11T12:53:53;98332.69;;;33.76;21.47
13124;BME280;6627;50.920;12.050;2022-08-11T12:56:22;98290.84;;;33.60;21.54
13124;BME280;6627;50.920;12.050;2022-08-11T12:59:09;98356.09;;;33.92;21.56
13124;BME280;6627;50.920;12.050;2022-08-11T13:01:54;98191.84;;;32.82;22.31
13124;BME280;6627;50.920;12.050;2022-08-11T13:04:42;98527.66;;;34.56;22.14
13124;BME280;6627;50.920;12.050;2022-08-11T13:07:26;98456.06;;;34.57;21.59
13124;BME280;6627;50.920;12.050;2022-08-11T13:09:55;98457.16;;;34.69;21.29
13124;BME280;6627;50.920;12.050;2022-08-11T13:12:24;98352.03;;;34.29;21.45
13124;BME280;6627;50.920;12.050;2022-08-11T13:15:13;98387.94;;;34.34;21.66
13124;BME280;6627;50.920;12.050;2022-08-11T13:17:41;98206.72;;;33.38;21.62
13124;BME280;6627;50.920;12.050;2022-08-11T13:20:12;98307.38;;;33.95;21.51
13124;BME280;6627;50.920;12.050;2022-08-11T13:22:41;98298.81;;;33.80;22.04
13124;BME280;6627;50.920;12.050;2022-08-11T13:25:11;98415.44;;;34.49;21.62
13124;BME280;6627;50.920;12.050;2022-08-11T13:27:42;98388.56;;;34.29;21.65
13124;BME280;6627;50.920;12.050;2022-08-11T13:30:12;98363.59;;;34.22;21.71
13124;BME280;6627;50.920;12.050;2022-08-11T13:32:59;98440.38;;;34.83;21.22
13124;BME280;6627;50.920;12.050;2022-08-11T13:35:30;98379.50;;;34.44;21.36
13124;BME280;6627;50.920;12.050;2022-08-11T13:38:01;98262.41;;;33.95;21.40
13124;BME280;6627;50.920;12.050;2022-08-11T13:40:31;98265.25;;;33.76;21.63
13124;BME280;6627;50.920;12.050;2022-08-11T13:42:59;98331.59;;;34.20;21.78
13124;BME280;6627;50.920;12.050;2022-08-11T13:45:27;98342.06;;;34.19;21.79
13124;BME280;6627;50.920;12.050;2022-08-11T13:47:56;98357.97;;;34.31;21.70
13124;BME280;6627;50.920;12.050;2022-08-11T13:50:26;98364.50;;;34.56;21.12
13124;BME280;6627;50.920;12.050;2022-08-11T13:53:19;98213.41;;;33.86;21.28
13124;BME280;6627;50.920;12.050;2022-08-11T13:55:48;98253.69;;;34.02;21.58
13124;BME280;6627;50.920;12.050;2022-08-11T13:58:16;98271.78;;;34.10;21.20
13124;BME280;6627;50.920;12.050;2022-08-11T14:00:49;98264.59;;;34.09;21.52
13124;BME280;6627;50.920;12.050;2022-08-11T14:03:22;98217.19;;;33.74;21.52
13124;BME280;6627;50.920;12.050;2022-08-11T14:05:53;98355.88;;;34.69;21.53
13124;BME280;6627;50.920;12.050;2022-08-11T14:08:29;98256.38;;;33.96;21.56
13124;BME280;6627;50.920;12.050;2022-08-11T14:11:02;98401.97;;;34.71;21.47
13124;BME280;6627;50.920;12.050;2022-08-11T14:13:51;98379.06;;;34.97;20.91
13124;BME280;6627;50.920;12.050;2022-08-11T14:16:26;98283.03;;;34.61;20.75
13124;BME280;6627;50.920;12.050;2022-08-11T14:19:00;98261.44;;;34.25;22.02
13124;BME280;6627;50.920;12.050;2022-08-11T14:21:35;98260.72;;;34.06;21.98
13124;BME280;6627;50.920;12.050;2022-08-11T14:24:22;98291.84;;;34.45;21.18
13124;BME280;6627;50.920;12.050;2022-08-11T14:26:51;98414.38;;;35.07;20.98
13124;BME280;6627;50.920;12.050;2022-08-11T14:29:24;98367.72;;;35.15;20.88
13124;BME280;6627;50.920;12.050;2022-08-11T14:31:55;98336.50;;;35.04;20.96
13124;BME280;6627;50.920;12.050;2022-08-11T14:34:26;98333.69;;;35.04;20.95
13124;BME280;6627;50.920;12.050;2022-08-11T14:36:58;98286.34;;;34.60;21.05
13124;BME280;6627;50.920;12.050;2022-08-11T14:39:39;98162.00;;;34.04;21.38
13124;BME280;6627;50.920;12.050;2022-08-11T14:42:09;98298.53;;;34.57;21.37
13124;BME280;6627;50.920;12.050;2022-08-11T14:44:59;98158.94;;;33.84;21.48
13124;BME280;6627;50.920;12.050;2022-08-11T14:47:49;98325.81;;;34.75;21.13